sensor_id;sensor_type;location;lat;lon;timestamp;temperature;humidity
22852;DHT22;11592;45.460;9.240;2022-08-21T00:02:02;26.10;99.90
22852;DHT22;11592;45.460;9.240;2022-08-21T00:04:29;26.10;99.90
22852;DHT22;11592;45.460;9.240;2022-08-21T00:06:59;26.10;99.90
22852;DHT22;11592;45.460;9.240;2022-08-21T00:09:26;26.10;99.90
22852;DHT22;11592;45.460;9.240;2022-08-21T00:11:53;26.10;99.90
22852;DHT22;11592;45.460;9.240;2022-08-21T00:14:19;25.90;99.90
22852;DHT22;11592;45.460;9.240;2022-08-21T00:16:46;25.90;99.90
22852;DHT22;11592;45.460;9.240;2022-08-21T00:19:13;25.80;99.90
22852;DHT22;11592;45.460;9.240;2022-08-21T00:21:39;25.80;99.90
22852;DHT22;11592;45.460;9.240;2022-08-21T00:24:10;25.70;99.90
22852;DHT22;11592;45.460;9.240;2022-08-21T00:26:37;25.70;99.90
22852;DHT22;11592;45.460;9.240;2022-08-21T00:29:04;25.70;99.90
22852;DHT22;11592;45.460;9.240;2022-08-21T00:31:31;25.70;99.90
22852;DHT22;11592;45.460;9.240;2022-08-21T00:33:58;25.70;99.90
22852;DHT22;11592;45.460;9.240;2022-08-21T00:36:27;25.70;99.90
22852;DHT22;11592;45.460;9.240;2022-08-21T00:38:54;25.70;99.90
22852;DHT22;11592;45.460;9.240;2022-08-21T00:41:21;25.60;99.90
22852;DHT22;11592;45.460;9.240;2022-08-21T00:44:06;25.60;99.90
22852;DHT22;11592;45.460;9.240;2022-08-21T00:46:34;25.60;99.90
22852;DHT22;11592;45.460;9.240;2022-08-21T00:49:00;25.60;99.90
22852;DHT22;11592;45.460;9.240;2022-08-21T00:51:55;25.60;99.90
22852;DHT22;11592;45.460;9.240;2022-08-21T00:54:24;25.60;99.90
22852;DHT22;11592;45.460;9.240;2022-08-21T00:56:57;25.60;99.90
22852;DHT22;11592;45.460;9.240;2022-08-21T00:59:27;25.50;99.90
22852;DHT22;11592;45.460;9.240;2022-08-21T01:01:55;25.40;99.90
22852;DHT22;11592;45.460;9.240;2022-08-21T01:04:22;25.30;99.90
22852;DHT22;11592;45.460;9.240;2022-08-21T01:06:49;25.10;99.90
22852;DHT22;11592;45.460;9.240;2022-08-21T01:09:18;25.20;99.90
22852;DHT22;11592;45.460;9.240;2022-08-21T01:11:45;25.10;99.90
22852;DHT22;11592;45.460;9.240;2022-08-21T01:14:13;25.10;99.90
22852;DHT22;11592;45.460;9.240;2022-08-21T01:16:44;25.10;99.90
22852;DHT22;11592;45.460;9.240;2022-08-21T01:19:12;25.00;99.90
22852;DHT22;11592;45.460;9.240;2022-08-21T01:21:39;24.90;99.90
22852;DHT22;11592;45.460;9.240;2022-08-21T01:24:06;24.80;99.90
22852;DHT22;11592;45.460;9.240;2022-08-21T01:26:35;24.90;99.90
22852;DHT22;11592;45.460;9.240;2022-08-21T01:31:54;24.80;99.90
22852;DHT22;11592;45.460;9.240;2022-08-21T01:34:21;24.80;99.90
22852;DHT22;11592;45.460;9.240;2022-08-21T01:36:48;24.80;99.90
22852;DHT22;11592;45.460;9.240;2022-08-21T01:39:15;24.70;99.90
22852;DHT22;11592;45.460;9.240;2022-08-21T01:41:42;24.70;99.90
22852;DHT22;11592;45.460;9.240;2022-08-21T01:44:09;24.70;99.90
22852;DHT22;11592;45.460;9.240;2022-08-21T01:46:36;24.70;99.90
22852;DHT22;11592;45.460;9.240;2022-08-21T01:49:04;24.80;99.90
22852;DHT22;11592;45.460;9.240;2022-08-21T01:51:31;24.90;99.90
22852;DHT22;11592;45.460;9.240;2022-08-21T01:53:58;24.90;99.90
22852;DHT22;11592;45.460;9.240;2022-08-21T01:56:25;24.90;99.90
22852;DHT22;11592;45.460;9.240;2022-08-21T01:58:53;24.90;99.90
22852;DHT22;11592;45.460;9.240;2022-08-21T02:01:20;24.80;99.90
22852;DHT22;11592;45.460;9.240;2022-08-21T02:06:15;24.60;99.90
22852;DHT22;11592;45.460;9.240;2022-08-21T02:08:45;24.60;99.90
22852;DHT22;11592;45.460;9.240;2022-08-21T02:13:39;24.60;99.90
22852;DHT22;11592;45.460;9.240;2022-08-21T02:16:06;24.60;99.90
22852;DHT22;11592;45.460;9.240;2022-08-21T02:18:34;24.70;99.90
22852;DHT22;11592;45.460;9.240;2022-08-21T02:21:02;24.70;99.90
22852;DHT22;11592;45.460;9.240;2022-08-21T02:23:29;24.60;99.90
22852;DHT22;11592;45.460;9.240;2022-08-21T02:25:58;24.60;99.90
22852;DHT22;11592;45.460;9.240;2022-08-21T02:28:25;24.40;99.90
22852;DHT22;11592;45.460;9.240;2022-08-21T02:30:55;24.30;99.90
22852;DHT22;11592;45.460;9.240;2022-08-21T02:33:22;24.20;99.90
22852;DHT22;11592;45.460;9.240;2022-08-21T02:35:49;24.40;99.90
22852;DHT22;11592;45.460;9.240;2022-08-21T02:38:20;24.60;99.90
22852;DHT22;11592;45.460;9.240;2022-08-21T02:40:49;24.50;99.90
22852;DHT22;11592;45.460;9.240;2022-08-21T02:43:17;24.60;99.90
22852;DHT22;11592;45.460;9.240;2022-08-21T02:45:45;24.60;99.90
22852;DHT22;11592;45.460;9.240;2022-08-21T02:48:16;24.60;99.90
22852;DHT22;11592;45.460;9.240;2022-08-21T02:51:10;24.50;99.90
22852;DHT22;11592;45.460;9.240;2022-08-21T02:53:38;24.50;99.90
22852;DHT22;11592;45.460;9.240;2022-08-21T02:56:07;24.40;99.90
22852;DHT22;11592;45.460;9.240;2022-08-21T02:58:37;24.40;99.90
22852;DHT22;11592;45.460;9.240;2022-08-21T03:01:05;24.30;99.90
22852;DHT22;11592;45.460;9.240;2022-08-21T03:03:41;24.40;99.90
22852;DHT22;11592;45.460;9.240;2022-08-21T03:06:09;24.40;99.90
22852;DHT22;11592;45.460;9.240;2022-08-21T03:08:37;24.40;99.90
22852;DHT22;11592;45.460;9.240;2022-08-21T03:11:04;24.30;99.90
22852;DHT22;11592;45.460;9.240;2022-08-21T03:13:33;24.20;99.90
22852;DHT22;11592;45.460;9.240;2022-08-21T03:16:00;24.20;99.90
22852;DHT22;11592;45.460;9.240;2022-08-21T03:18:30;24.20;99.90
22852;DHT22;11592;45.460;9.240;2022-08-21T03:20:57;23.90;99.90
22852;DHT22;11592;45.460;9.240;2022-08-21T03:23:24;23.90;99.90
22852;DHT22;11592;45.460;9.240;2022-08-21T03:25:58;23.80;99.90
22852;DHT22;11592;45.460;9.240;2022-08-21T03:28:25;23.80;99.90
22852;DHT22;11592;45.460;9.240;2022-08-21T03:30:53;23.70;99.90
22852;DHT22;11592;45.460;9.240;2022-08-21T03:33:20;23.60;99.90
22852;DHT22;11592;45.460;9.240;2022-08-21T03:35:58;23.50;99.90
22852;DHT22;11592;45.460;9.240;2022-08-21T03:38:28;23.50;99.90
22852;DHT22;11592;45.460;9.240;2022-08-21T03:40:55;23.50;99.90
22852;DHT22;11592;45.460;9.240;2022-08-21T03:43:22;23.40;99.90
22852;DHT22;11592;45.460;9.240;2022-08-21T03:45:49;23.50;99.90
22852;DHT22;11592;45.460;9.240;2022-08-21T03:48:18;23.50;99.90
22852;DHT22;11592;45.460;9.240;2022-08-21T03:50:45;23.60;99.90
22852;DHT22;11592;45.460;9.240;2022-08-21T03:53:14;23.80;99.90
22852;DHT22;11592;45.460;9.240;2022-08-21T03:55:45;23.80;99.90
22852;DHT22;11592;45.460;9.240;2022-08-21T03:58:14;23.60;99.90
22852;DHT22;11592;45.460;9.240;2022-08-21T04:00:45;23.50;99.90
22852;DHT22;11592;45.460;9.240;2022-08-21T04:03:12;23.40;99.90
22852;DHT22;11592;45.460;9.240;2022-08-21T04:08:07;23.30;99.90
22852;DHT22;11592;45.460;9.240;2022-08-21T04:10:36;23.30;99.90
22852;DHT22;11592;45.460;9.240;2022-08-21T04:13:04;23.20;99.90
22852;DHT22;11592;45.460;9.240;2022-08-21T04:15:31;23.20;99.90
22852;DHT22;11592;45.460;9.240;2022-08-21T04:17:57;23.10;99.90
22852;DHT22;11592;45.460;9.240;2022-08-21T04:20:25;23.10;99.90
22852;DHT22;11592;45.460;9.240;2022-08-21T04:22:53;23.20;99.90
22852;DHT22;11592;45.460;9.240;2022-08-21T04:25:21;23.30;99.90
22852;DHT22;11592;45.460;9.240;2022-08-21T04:27:49;23.30;99.90
22852;DHT22;11592;45.460;9.240;2022-08-21T04:30:16;23.20;99.90
22852;DHT22;11592;45.460;9.240;2022-08-21T04:32:47;23.10;99.90
22852;DHT22;11592;45.460;9.240;2022-08-21T04:35:20;23.10;99.90
22852;DHT22;11592;45.460;9.240;2022-08-21T04:37:47;23.10;99.90
22852;DHT22;11592;45.460;9.240;2022-08-21T04:40:16;23.10;99.90
22852;DHT22;11592;45.460;9.240;2022-08-21T04:42:47;23.10;99.90
22852;DHT22;11592;45.460;9.240;2022-08-21T04:45:20;23.10;99.90
22852;DHT22;11592;45.460;9.240;2022-08-21T04:47:52;23.10;99.90
22852;DHT22;11592;45.460;9.240;2022-08-21T04:50:21;23.00;99.90
22852;DHT22;11592;45.460;9.240;2022-08-21T04:52:48;23.10;99.90
22852;DHT22;11592;45.460;9.240;2022-08-21T04:55:16;23.10;99.90
22852;DHT22;11592;45.460;9.240;2022-08-21T05:00:16;23.10;99.90
22852;DHT22;11592;45.460;9.240;2022-08-21T05:05:15;23.10;99.90
22852;DHT22;11592;45.460;9.240;2022-08-21T05:07:42;23.20;99.90
22852;DHT22;11592;45.460;9.240;2022-08-21T05:10:10;23.30;99.90
22852;DHT22;11592;45.460;9.240;2022-08-21T05:12:41;23.30;99.90
22852;DHT22;11592;45.460;9.240;2022-08-21T05:15:10;23.30;99.90
22852;DHT22;11592;45.460;9.240;2022-08-21T05:17:40;23.40;99.90
22852;DHT22;11592;45.460;9.240;2022-08-21T05:20:09;23.50;99.90
22852;DHT22;11592;45.460;9.240;2022-08-21T05:22:36;23.50;99.90
22852;DHT22;11592;45.460;9.240;2022-08-21T05:25:04;23.50;99.90
22852;DHT22;11592;45.460;9.240;2022-08-21T05:27:36;23.60;99.90
22852;DHT22;11592;45.460;9.240;2022-08-21T05:30:06;23.70;99.90
22852;DHT22;11592;45.460;9.240;2022-08-21T05:35:03;23.80;99.90
22852;DHT22;11592;45.460;9.240;2022-08-21T05:37:30;23.80;99.90
22852;DHT22;11592;45.460;9.240;2022-08-21T05:39:58;23.80;99.90
22852;DHT22;11592;45.460;9.240;2022-08-21T05:42:46;23.90;99.90
22852;DHT22;11592;45.460;9.240;2022-08-21T05:45:23;23.90;99.90
22852;DHT22;11592;45.460;9.240;2022-08-21T05:50:37;24.10;99.90
22852;DHT22;11592;45.460;9.240;2022-08-21T05:53:05;24.20;99.90
22852;DHT22;11592;45.460;9.240;2022-08-21T05:55:33;24.20;99.90
22852;DHT22;11592;45.460;9.240;2022-08-21T05:58:02;24.30;99.90
22852;DHT22;11592;45.460;9.240;2022-08-21T06:00:29;24.30;99.90
22852;DHT22;11592;45.460;9.240;2022-08-21T06:02:56;24.20;99.90
22852;DHT22;11592;45.460;9.240;2022-08-21T06:08:03;24.30;99.90
22852;DHT22;11592;45.460;9.240;2022-08-21T06:10:30;24.40;99.90
22852;DHT22;11592;45.460;9.240;2022-08-21T06:12:57;24.40;99.90
22852;DHT22;11592;45.460;9.240;2022-08-21T06:15:24;24.60;99.90
22852;DHT22;11592;45.460;9.240;2022-08-21T06:17:53;24.60;99.90
22852;DHT22;11592;45.460;9.240;2022-08-21T06:20:20;24.60;99.90
22852;DHT22;11592;45.460;9.240;2022-08-21T06:27:41;24.90;99.90
22852;DHT22;11592;45.460;9.240;2022-08-21T06:30:08;25.00;99.90
22852;DHT22;11592;45.460;9.240;2022-08-21T06:35:04;25.20;99.90
22852;DHT22;11592;45.460;9.240;2022-08-21T06:37:32;25.20;99.90
22852;DHT22;11592;45.460;9.240;2022-08-21T06:39:59;25.30;99.90
22852;DHT22;11592;45.460;9.240;2022-08-21T06:42:26;25.30;99.90
22852;DHT22;11592;45.460;9.240;2022-08-21T06:44:56;25.40;99.90
22852;DHT22;11592;45.460;9.240;2022-08-21T06:47:23;25.50;99.90
22852;DHT22;11592;45.460;9.240;2022-08-21T06:49:50;25.60;99.90
22852;DHT22;11592;45.460;9.240;2022-08-21T06:52:16;25.60;99.90
22852;DHT22;11592;45.460;9.240;2022-08-21T06:54:43;25.70;99.90
22852;DHT22;11592;45.460;9.240;2022-08-21T06:57:10;25.80;99.90
22852;DHT22;11592;45.460;9.240;2022-08-21T06:59:37;25.80;99.90
22852;DHT22;11592;45.460;9.240;2022-08-21T07:02:04;25.90;99.90
22852;DHT22;11592;45.460;9.240;2022-08-21T07:04:31;25.90;99.90
22852;DHT22;11592;45.460;9.240;2022-08-21T07:06:57;25.90;99.90
22852;DHT22;11592;45.460;9.240;2022-08-21T07:11:54;26.00;99.90
22852;DHT22;11592;45.460;9.240;2022-08-21T07:14:21;26.10;99.90
22852;DHT22;11592;45.460;9.240;2022-08-21T07:16:49;26.20;99.90
22852;DHT22;11592;45.460;9.240;2022-08-21T07:19:17;26.20;99.90
22852;DHT22;11592;45.460;9.240;2022-08-21T07:24:12;26.30;99.90
22852;DHT22;11592;45.460;9.240;2022-08-21T07:26:39;26.30;99.90
22852;DHT22;11592;45.460;9.240;2022-08-21T07:29:06;26.40;99.90
22852;DHT22;11592;45.460;9.240;2022-08-21T07:31:33;26.40;99.90
22852;DHT22;11592;45.460;9.240;2022-08-21T07:34:00;26.30;99.90
22852;DHT22;11592;45.460;9.240;2022-08-21T07:38:54;26.30;99.90
22852;DHT22;11592;45.460;9.240;2022-08-21T07:41:23;26.30;99.90
22852;DHT22;11592;45.460;9.240;2022-08-21T07:43:51;26.20;99.90
22852;DHT22;11592;45.460;9.240;2022-08-21T07:46:19;26.30;99.90
22852;DHT22;11592;45.460;9.240;2022-08-21T07:48:46;26.40;99.90
22852;DHT22;11592;45.460;9.240;2022-08-21T07:51:15;26.40;99.90
22852;DHT22;11592;45.460;9.240;2022-08-21T07:53:48;26.40;99.90
22852;DHT22;11592;45.460;9.240;2022-08-21T07:56:16;26.60;99.90
22852;DHT22;11592;45.460;9.240;2022-08-21T08:03:38;26.70;99.90
22852;DHT22;11592;45.460;9.240;2022-08-21T08:06:06;26.80;99.90
22852;DHT22;11592;45.460;9.240;2022-08-21T08:11:02;27.00;99.90
22852;DHT22;11592;45.460;9.240;2022-08-21T08:13:29;26.90;99.90
22852;DHT22;11592;45.460;9.240;2022-08-21T08:15:56;27.00;99.90
22852;DHT22;11592;45.460;9.240;2022-08-21T08:20:50;27.30;99.90
22852;DHT22;11592;45.460;9.240;2022-08-21T08:25:44;27.50;99.90
22852;DHT22;11592;45.460;9.240;2022-08-21T08:28:11;27.50;99.60
22852;DHT22;11592;45.460;9.240;2022-08-21T08:30:44;27.50;99.30
22852;DHT22;11592;45.460;9.240;2022-08-21T08:33:12;27.50;99.40
22852;DHT22;11592;45.460;9.240;2022-08-21T08:35:39;27.50;99.20
22852;DHT22;11592;45.460;9.240;2022-08-21T08:40:43;27.60;99.00
22852;DHT22;11592;45.460;9.240;2022-08-21T08:43:12;27.60;99.60
22852;DHT22;11592;45.460;9.240;2022-08-21T08:45:43;27.50;99.60
22852;DHT22;11592;45.460;9.240;2022-08-21T08:48:28;27.60;99.70
22852;DHT22;11592;45.460;9.240;2022-08-21T08:51:00;27.80;99.30
22852;DHT22;11592;45.460;9.240;2022-08-21T08:53:33;27.90;99.80
22852;DHT22;11592;45.460;9.240;2022-08-21T08:56:02;28.00;99.20
22852;DHT22;11592;45.460;9.240;2022-08-21T08:58:33;28.00;98.70
22852;DHT22;11592;45.460;9.240;2022-08-21T09:01:01;28.10;98.60
22852;DHT22;11592;45.460;9.240;2022-08-21T09:03:28;28.00;98.90
22852;DHT22;11592;45.460;9.240;2022-08-21T09:06:06;27.90;98.90
22852;DHT22;11592;45.460;9.240;2022-08-21T09:23:43;28.40;99.80
22852;DHT22;11592;45.460;9.240;2022-08-21T09:28:16;28.10;99.90
22852;DHT22;11592;45.460;9.240;2022-08-21T09:30:43;28.20;99.90
22852;DHT22;11592;45.460;9.240;2022-08-21T09:33:12;28.20;99.90
22852;DHT22;11592;45.460;9.240;2022-08-21T09:35:53;28.10;99.90
22852;DHT22;11592;45.460;9.240;2022-08-21T09:38:26;28.30;99.90
22852;DHT22;11592;45.460;9.240;2022-08-21T09:41:26;28.40;99.90
22852;DHT22;11592;45.460;9.240;2022-08-21T09:43:54;28.50;99.90
22852;DHT22;11592;45.460;9.240;2022-08-21T09:46:23;28.60;99.90
22852;DHT22;11592;45.460;9.240;2022-08-21T09:48:53;28.60;99.90
22852;DHT22;11592;45.460;9.240;2022-08-21T09:51:34;28.70;99.90
22852;DHT22;11592;45.460;9.240;2022-08-21T09:56:35;28.80;99.80
22852;DHT22;11592;45.460;9.240;2022-08-21T09:59:33;28.90;99.60
22852;DHT22;11592;45.460;9.240;2022-08-21T10:02:32;28.70;99.30
22852;DHT22;11592;45.460;9.240;2022-08-21T10:05:25;28.70;99.40
22852;DHT22;11592;45.460;9.240;2022-08-21T10:07:53;28.80;99.90
22852;DHT22;11592;45.460;9.240;2022-08-21T10:10:26;28.80;98.90
22852;DHT22;11592;45.460;9.240;2022-08-21T10:21:10;29.20;98.10
22852;DHT22;11592;45.460;9.240;2022-08-21T10:23:54;29.20;98.40
22852;DHT22;11592;45.460;9.240;2022-08-21T10:43:35;30.40;96.30
22852;DHT22;11592;45.460;9.240;2022-08-21T10:48:54;30.60;95.50
22852;DHT22;11592;45.460;9.240;2022-08-21T10:51:38;30.70;95.30
22852;DHT22;11592;45.460;9.240;2022-08-21T10:57:02;31.20;94.90
22852;DHT22;11592;45.460;9.240;2022-08-21T10:59:52;31.40;95.70
22852;DHT22;11592;45.460;9.240;2022-08-21T11:02:31;31.40;94.10
22852;DHT22;11592;45.460;9.240;2022-08-21T11:05:08;31.40;94.00
22852;DHT22;11592;45.460;9.240;2022-08-21T11:08:31;31.30;93.90
22852;DHT22;11592;45.460;9.240;2022-08-21T11:11:20;31.40;94.10
22852;DHT22;11592;45.460;9.240;2022-08-21T11:14:04;31.70;94.40
22852;DHT22;11592;45.460;9.240;2022-08-21T11:16:42;32.00;94.10
22852;DHT22;11592;45.460;9.240;2022-08-21T11:19:22;32.20;93.60
22852;DHT22;11592;45.460;9.240;2022-08-21T11:22:23;32.40;93.20
22852;DHT22;11592;45.460;9.240;2022-08-21T11:30:17;33.00;93.10
22852;DHT22;11592;45.460;9.240;2022-08-21T11:33:06;33.20;92.70
22852;DHT22;11592;45.460;9.240;2022-08-21T11:35:51;33.30;92.50
22852;DHT22;11592;45.460;9.240;2022-08-21T11:43:48;33.70;91.40
22852;DHT22;11592;45.460;9.240;2022-08-21T11:49:29;34.10;91.20
22852;DHT22;11592;45.460;9.240;2022-08-21T11:57:11;34.50;87.30
22852;DHT22;11592;45.460;9.240;2022-08-21T11:59:59;35.70;90.10
22852;DHT22;11592;45.460;9.240;2022-08-21T12:02:34;35.00;87.80
22852;DHT22;11592;45.460;9.240;2022-08-21T12:05:06;35.30;88.50
22852;DHT22;11592;45.460;9.240;2022-08-21T12:07:43;38.20;89.00
22852;DHT22;11592;45.460;9.240;2022-08-21T12:10:17;36.10;85.60
22852;DHT22;11592;45.460;9.240;2022-08-21T12:12:47;36.40;80.20
22852;DHT22;11592;45.460;9.240;2022-08-21T12:17:57;36.50;80.60
22852;DHT22;11592;45.460;9.240;2022-08-21T12:23:24;36.70;74.90
22852;DHT22;11592;45.460;9.240;2022-08-21T12:28:51;37.60;73.30
22852;DHT22;11592;45.460;9.240;2022-08-21T12:31:29;37.90;73.20
22852;DHT22;11592;45.460;9.240;2022-08-21T12:33:59;38.30;74.10
22852;DHT22;11592;45.460;9.240;2022-08-21T12:36:55;38.70;75.20
22852;DHT22;11592;45.460;9.240;2022-08-21T12:39:26;39.00;69.70
22852;DHT22;11592;45.460;9.240;2022-08-21T12:42:07;39.00;65.30
22852;DHT22;11592;45.460;9.240;2022-08-21T12:44:43;39.50;70.70
22852;DHT22;11592;45.460;9.240;2022-08-21T12:47:31;39.40;71.00
22852;DHT22;11592;45.460;9.240;2022-08-21T12:50:08;39.70;64.80
22852;DHT22;11592;45.460;9.240;2022-08-21T12:52:41;39.10;64.90
22852;DHT22;11592;45.460;9.240;2022-08-21T12:55:13;39.50;62.70
22852;DHT22;11592;45.460;9.240;2022-08-21T12:57:42;39.40;61.90
22852;DHT22;11592;45.460;9.240;2022-08-21T13:00:11;40.00;64.00
22852;DHT22;11592;45.460;9.240;2022-08-21T13:02:46;40.40;60.30
22852;DHT22;11592;45.460;9.240;2022-08-21T13:05:19;40.90;61.40
22852;DHT22;11592;45.460;9.240;2022-08-21T13:07:48;41.20;56.40
22852;DHT22;11592;45.460;9.240;2022-08-21T13:10:23;41.30;56.90
22852;DHT22;11592;45.460;9.240;2022-08-21T13:12:54;42.00;58.70
22852;DHT22;11592;45.460;9.240;2022-08-21T13:15:26;42.40;60.00
22852;DHT22;11592;45.460;9.240;2022-08-21T13:17:59;43.00;55.40
22852;DHT22;11592;45.460;9.240;2022-08-21T13:20:37;43.40;51.00
22852;DHT22;11592;45.460;9.240;2022-08-21T13:23:28;43.70;56.50
22852;DHT22;11592;45.460;9.240;2022-08-21T13:25:56;43.70;50.30
22852;DHT22;11592;45.460;9.240;2022-08-21T13:28:23;43.10;50.60
22852;DHT22;11592;45.460;9.240;2022-08-21T13:30:53;42.90;49.50
22852;DHT22;11592;45.460;9.240;2022-08-21T13:33:23;43.50;48.60
22852;DHT22;11592;45.460;9.240;2022-08-21T13:36:11;44.60;47.90
22852;DHT22;11592;45.460;9.240;2022-08-21T13:38:41;45.10;52.70
22852;DHT22;11592;45.460;9.240;2022-08-21T13:43:47;45.00;46.40
22852;DHT22;11592;45.460;9.240;2022-08-21T13:46:15;44.50;46.30
22852;DHT22;11592;45.460;9.240;2022-08-21T13:48:44;44.00;47.30
22852;DHT22;11592;45.460;9.240;2022-08-21T13:51:11;44.30;47.50
22852;DHT22;11592;45.460;9.240;2022-08-21T13:56:07;45.30;49.40
22852;DHT22;11592;45.460;9.240;2022-08-21T13:58:45;45.70;49.70
22852;DHT22;11592;45.460;9.240;2022-08-21T14:01:49;45.50;50.10
22852;DHT22;11592;45.460;9.240;2022-08-21T14:04:23;45.30;46.30
22852;DHT22;11592;45.460;9.240;2022-08-21T14:06:51;45.10;45.60
22852;DHT22;11592;45.460;9.240;2022-08-21T14:09:40;44.70;44.90
22852;DHT22;11592;45.460;9.240;2022-08-21T14:12:19;44.30;45.60
22852;DHT22;11592;45.460;9.240;2022-08-21T14:14:51;44.70;44.90
22852;DHT22;11592;45.460;9.240;2022-08-21T14:17:32;45.80;45.40
22852;DHT22;11592;45.460;9.240;2022-08-21T14:22:39;44.60;46.40
22852;DHT22;11592;45.460;9.240;2022-08-21T14:27:44;45.10;43.60
22852;DHT22;11592;45.460;9.240;2022-08-21T14:30:42;44.90;42.60
22852;DHT22;11592;45.460;9.240;2022-08-21T14:33:11;44.90;42.30
22852;DHT22;11592;45.460;9.240;2022-08-21T14:35:39;44.90;41.30
22852;DHT22;11592;45.460;9.240;2022-08-21T14:38:18;45.10;40.90
22852;DHT22;11592;45.460;9.240;2022-08-21T14:40:50;45.20;41.60
22852;DHT22;11592;45.460;9.240;2022-08-21T14:43:17;45.30;42.00
22852;DHT22;11592;45.460;9.240;2022-08-21T14:48:13;45.00;42.90
22852;DHT22;11592;45.460;9.240;2022-08-21T14:55:37;41.20;44.10
22852;DHT22;11592;45.460;9.240;2022-08-21T15:00:51;39.00;46.70
22852;DHT22;11592;45.460;9.240;2022-08-21T15:13:32;40.20;48.30
22852;DHT22;11592;45.460;9.240;2022-08-21T15:18:28;42.20;44.30
22852;DHT22;11592;45.460;9.240;2022-08-21T15:20:55;43.00;43.60
22852;DHT22;11592;45.460;9.240;2022-08-21T15:23:23;43.10;44.20
22852;DHT22;11592;45.460;9.240;2022-08-21T15:25:50;43.60;42.90
22852;DHT22;11592;45.460;9.240;2022-08-21T15:28:18;44.20;42.90
22852;DHT22;11592;45.460;9.240;2022-08-21T15:30:50;43.70;42.10
22852;DHT22;11592;45.460;9.240;2022-08-21T15:33:18;43.60;42.90
22852;DHT22;11592;45.460;9.240;2022-08-21T15:35:45;43.80;42.50
22852;DHT22;11592;45.460;9.240;2022-08-21T15:40:41;43.20;42.00
22852;DHT22;11592;45.460;9.240;2022-08-21T15:43:29;42.90;42.50
22852;DHT22;11592;45.460;9.240;2022-08-21T15:46:00;41.90;43.30
22852;DHT22;11592;45.460;9.240;2022-08-21T15:50:55;41.50;44.80
22852;DHT22;11592;45.460;9.240;2022-08-21T15:55:49;41.10;45.60
22852;DHT22;11592;45.460;9.240;2022-08-21T15:58:17;40.80;45.60
22852;DHT22;11592;45.460;9.240;2022-08-21T16:00:46;40.10;46.30
22852;DHT22;11592;45.460;9.240;2022-08-21T16:03:16;39.20;47.90
22852;DHT22;11592;45.460;9.240;2022-08-21T16:05:44;38.80;48.30
22852;DHT22;11592;45.460;9.240;2022-08-21T16:08:12;38.50;49.30
22852;DHT22;11592;45.460;9.240;2022-08-21T16:10:39;38.50;50.20
22852;DHT22;11592;45.460;9.240;2022-08-21T16:13:15;38.50;51.10
22852;DHT22;11592;45.460;9.240;2022-08-21T16:15:43;38.20;52.60
22852;DHT22;11592;45.460;9.240;2022-08-21T16:18:10;37.90;50.10
22852;DHT22;11592;45.460;9.240;2022-08-21T16:20:37;37.90;50.50
22852;DHT22;11592;45.460;9.240;2022-08-21T16:25:37;37.60;50.80
22852;DHT22;11592;45.460;9.240;2022-08-21T16:28:07;37.60;51.40
22852;DHT22;11592;45.460;9.240;2022-08-21T16:30:38;37.20;50.80
22852;DHT22;11592;45.460;9.240;2022-08-21T16:33:05;37.10;51.10
22852;DHT22;11592;45.460;9.240;2022-08-21T16:35:34;36.80;50.80
22852;DHT22;11592;45.460;9.240;2022-08-21T16:38:00;36.60;50.60
22852;DHT22;11592;45.460;9.240;2022-08-21T16:40:28;36.50;50.80
22852;DHT22;11592;45.460;9.240;2022-08-21T16:42:55;36.30;50.60
22852;DHT22;11592;45.460;9.240;2022-08-21T16:45:22;36.40;51.40
22852;DHT22;11592;45.460;9.240;2022-08-21T16:47:49;36.30;51.60
22852;DHT22;11592;45.460;9.240;2022-08-21T16:50:20;36.20;51.70
22852;DHT22;11592;45.460;9.240;2022-08-21T16:52:47;35.90;51.80
22852;DHT22;11592;45.460;9.240;2022-08-21T16:55:15;35.30;51.70
22852;DHT22;11592;45.460;9.240;2022-08-21T16:57:42;35.00;52.30
22852;DHT22;11592;45.460;9.240;2022-08-21T17:00:10;34.70;53.10
22852;DHT22;11592;45.460;9.240;2022-08-21T17:02:45;34.40;53.10
22852;DHT22;11592;45.460;9.240;2022-08-21T17:05:14;33.90;53.90
22852;DHT22;11592;45.460;9.240;2022-08-21T17:07:42;33.60;54.30
22852;DHT22;11592;45.460;9.240;2022-08-21T17:10:11;33.60;55.00
22852;DHT22;11592;45.460;9.240;2022-08-21T17:12:40;33.50;55.90
22852;DHT22;11592;45.460;9.240;2022-08-21T17:15:16;33.30;56.50
22852;DHT22;11592;45.460;9.240;2022-08-21T17:17:47;33.20;57.20
22852;DHT22;11592;45.460;9.240;2022-08-21T17:22:42;32.90;56.00
22852;DHT22;11592;45.460;9.240;2022-08-21T17:25:09;32.90;56.80
22852;DHT22;11592;45.460;9.240;2022-08-21T17:27:36;32.80;56.90
22852;DHT22;11592;45.460;9.240;2022-08-21T17:30:05;32.70;57.10
22852;DHT22;11592;45.460;9.240;2022-08-21T17:32:32;32.50;57.60
22852;DHT22;11592;45.460;9.240;2022-08-21T17:34:59;32.40;58.50
22852;DHT22;11592;45.460;9.240;2022-08-21T17:37:26;32.00;58.20
22852;DHT22;11592;45.460;9.240;2022-08-21T17:39:55;32.00;58.70
22852;DHT22;11592;45.460;9.240;2022-08-21T17:42:22;32.10;60.00
22852;DHT22;11592;45.460;9.240;2022-08-21T17:44:51;32.20;60.40
22852;DHT22;11592;45.460;9.240;2022-08-21T17:47:18;32.20;61.60
22852;DHT22;11592;45.460;9.240;2022-08-21T17:49:45;32.00;59.60
22852;DHT22;11592;45.460;9.240;2022-08-21T17:52:12;32.00;59.60
22852;DHT22;11592;45.460;9.240;2022-08-21T17:54:38;32.00;60.20
22852;DHT22;11592;45.460;9.240;2022-08-21T17:57:16;32.00;60.10
22852;DHT22;11592;45.460;9.240;2022-08-21T17:59:43;31.60;59.00
22852;DHT22;11592;45.460;9.240;2022-08-21T18:02:13;31.50;59.50
22852;DHT22;11592;45.460;9.240;2022-08-21T18:04:46;31.30;60.00
22852;DHT22;11592;45.460;9.240;2022-08-21T18:07:17;31.40;61.70
22852;DHT22;11592;45.460;9.240;2022-08-21T18:10:03;31.40;61.00
22852;DHT22;11592;45.460;9.240;2022-08-21T18:12:31;31.20;61.10
22852;DHT22;11592;45.460;9.240;2022-08-21T18:15:00;31.20;62.10
22852;DHT22;11592;45.460;9.240;2022-08-21T18:17:27;31.10;63.40
22852;DHT22;11592;45.460;9.240;2022-08-21T18:19:55;31.00;65.00
22852;DHT22;11592;45.460;9.240;2022-08-21T18:22:25;30.90;64.80
22852;DHT22;11592;45.460;9.240;2022-08-21T18:24:52;30.90;65.90
22852;DHT22;11592;45.460;9.240;2022-08-21T18:27:20;30.80;67.70
22852;DHT22;11592;45.460;9.240;2022-08-21T18:29:53;30.70;70.90
22852;DHT22;11592;45.460;9.240;2022-08-21T18:32:22;30.50;71.40
22852;DHT22;11592;45.460;9.240;2022-08-21T18:34:59;30.30;71.20
22852;DHT22;11592;45.460;9.240;2022-08-21T18:37:27;30.20;70.70
22852;DHT22;11592;45.460;9.240;2022-08-21T18:39:54;30.10;72.30
22852;DHT22;11592;45.460;9.240;2022-08-21T18:42:21;30.00;73.60
22852;DHT22;11592;45.460;9.240;2022-08-21T18:44:58;29.90;73.80
22852;DHT22;11592;45.460;9.240;2022-08-21T18:47:30;29.90;75.80
22852;DHT22;11592;45.460;9.240;2022-08-21T18:50:04;29.70;76.20